createdAt,value
2023-05-02T00:01:22.699Z,3.03
2023-05-02T00:03:50.065Z,3.50
2023-05-02T00:06:17.507Z,3.50
2023-05-02T00:08:44.940Z,3.70
2023-05-02T00:11:12.260Z,4.18
2023-05-02T00:13:39.590Z,4.10
2023-05-02T00:16:07.340Z,3.90
2023-05-02T00:18:34.670Z,3.70
2023-05-02T00:21:01.930Z,4.03
2023-05-02T00:23:29.109Z,4.20
2023-05-02T00:25:56.366Z,3.67
2023-05-02T00:28:23.547Z,3.50
2023-05-02T00:30:50.984Z,4.20
2023-05-02T00:33:18.395Z,3.95
2023-05-02T00:35:45.719Z,4.35
2023-05-02T00:38:12.908Z,4.18
2023-05-02T00:40:48.172Z,4.13
2023-05-02T00:43:16.349Z,4.32
2023-05-02T00:45:45.114Z,4.50
2023-05-02T00:48:13.504Z,4.10
2023-05-02T00:50:43.337Z,4.20
2023-05-02T00:53:11.549Z,4.40
2023-05-02T00:55:39.262Z,3.72
2023-05-02T00:58:12.168Z,4.20
2023-05-02T01:00:45.842Z,3.40
2023-05-02T01:03:37.196Z,4.05
2023-05-02T01:06:22.853Z,4.20
2023-05-02T01:09:07.621Z,4.35
2023-05-02T01:11:54.102Z,4.35
2023-05-02T01:14:22.563Z,4.68
2023-05-02T01:16:52.834Z,4.32
2023-05-02T01:19:29.763Z,4.80
2023-05-02T01:21:57.508Z,4.68
2023-05-02T01:24:36.696Z,5.10
2023-05-02T01:27:44.240Z,5.15
2023-05-02T01:30:14.058Z,5.45
2023-05-02T01:32:44.536Z,4.95
2023-05-02T01:35:15.057Z,4.80
2023-05-02T01:37:45.438Z,5.32
2023-05-02T01:40:18.230Z,4.10
2023-05-02T01:42:49.030Z,4.97
2023-05-02T01:45:16.994Z,4.50
2023-05-02T01:47:45.692Z,4.93
2023-05-02T01:50:17.460Z,4.47
2023-05-02T01:52:47.850Z,4.30
2023-05-02T01:55:18.001Z,4.57
2023-05-02T01:57:48.366Z,3.50
2023-05-02T02:00:19.123Z,4.20
2023-05-02T02:02:48.277Z,3.95
2023-05-02T02:05:17.731Z,4.03
2023-05-02T02:07:45.177Z,3.88
2023-05-02T02:10:13.324Z,3.88
2023-05-02T02:12:52.725Z,3.88
2023-05-02T02:15:32.712Z,4.40
2023-05-02T02:18:06.015Z,3.80
2023-05-02T02:20:34.543Z,4.68
2023-05-02T02:23:08.671Z,3.92
2023-05-02T02:25:37.294Z,3.70
2023-05-02T02:28:04.904Z,4.65
2023-05-02T02:30:32.371Z,4.30
2023-05-02T02:32:59.615Z,3.75
2023-05-02T02:35:34.392Z,4.50
2023-05-02T02:38:22.751Z,4.47
2023-05-02T02:41:05.952Z,4.47
2023-05-02T02:43:54.506Z,4.68
2023-05-02T02:46:50.407Z,4.70
2023-05-02T02:49:47.641Z,4.82
2023-05-02T02:52:28.931Z,3.80
2023-05-02T02:55:03.971Z,3.80
2023-05-02T02:57:31.226Z,2.90
2023-05-02T03:00:07.443Z,3.60
2023-05-02T03:02:37.457Z,3.50
2023-05-02T03:05:07.771Z,3.35
2023-05-02T03:07:35.137Z,3.45
2023-05-02T03:10:07.279Z,2.63
2023-05-02T03:12:36.272Z,4.35
2023-05-02T03:15:20.727Z,3.90
2023-05-02T03:17:47.994Z,3.22
2023-05-02T03:20:15.300Z,3.00
2023-05-02T03:22:42.638Z,4.20
2023-05-02T03:25:10.174Z,3.75
2023-05-02T03:27:42.193Z,3.60
2023-05-02T03:30:11.862Z,3.70
2023-05-02T03:32:39.290Z,3.75
2023-05-02T03:35:07.353Z,3.35
2023-05-02T03:37:39.924Z,3.25
2023-05-02T03:40:08.051Z,4.18
2023-05-02T03:42:40.567Z,3.40
2023-05-02T03:45:18.583Z,4.57
2023-05-02T03:47:48.098Z,3.20
2023-05-02T03:50:15.549Z,4.70
2023-05-02T03:52:47.262Z,3.50
2023-05-02T03:55:16.163Z,3.95
2023-05-02T03:57:43.689Z,4.22
2023-05-02T04:00:13.784Z,5.10
2023-05-02T04:02:47.777Z,3.70
2023-05-02T04:05:19.673Z,6.05
2023-05-02T04:07:49.055Z,4.15
2023-05-02T04:10:18.441Z,4.75
2023-05-02T04:12:53.940Z,4.13
2023-05-02T04:15:22.128Z,4.03
2023-05-02T04:17:51.465Z,5.00
2023-05-02T04:20:20.564Z,4.97
2023-05-02T04:22:51.062Z,6.50
2023-05-02T04:25:18.818Z,5.88
2023-05-02T04:27:46.877Z,6.70
2023-05-02T04:30:17.497Z,4.63
2023-05-02T04:32:52.725Z,6.55
2023-05-02T04:35:20.731Z,6.40
2023-05-02T04:37:48.258Z,5.45
2023-05-02T04:40:17.223Z,5.47
2023-05-02T04:42:47.894Z,5.70
2023-05-02T04:45:21.687Z,5.45
2023-05-02T04:47:50.560Z,5.43
2023-05-02T04:50:18.010Z,5.18
2023-05-02T04:52:45.526Z,4.75
2023-05-02T04:55:12.812Z,4.70
2023-05-02T04:57:40.850Z,4.70
2023-05-02T05:00:12.622Z,4.50
2023-05-02T05:02:40.397Z,4.75
2023-05-02T05:05:09.218Z,4.45
2023-05-02T05:07:36.792Z,4.25
2023-05-02T05:10:04.392Z,3.42
2023-05-02T05:12:39.455Z,4.60
2023-05-02T05:15:07.562Z,4.60
2023-05-02T05:17:35.074Z,4.03
2023-05-02T05:20:04.414Z,4.30
2023-05-02T05:22:32.519Z,3.70
2023-05-02T05:24:59.988Z,3.63
2023-05-02T05:27:30.951Z,3.22
2023-05-02T05:29:58.660Z,3.38
2023-05-02T05:32:26.507Z,3.53
2023-05-02T05:34:54.373Z,3.53
2023-05-02T05:37:24.419Z,3.72
2023-05-02T05:39:52.161Z,3.60
2023-05-02T05:42:19.453Z,3.15
2023-05-02T05:44:50.269Z,3.63
2023-05-02T05:47:24.747Z,4.00
2023-05-02T05:49:57.113Z,3.67
2023-05-02T05:52:28.765Z,3.63
2023-05-02T05:54:57.416Z,3.70
2023-05-02T05:57:26.667Z,3.70
2023-05-02T05:59:55.506Z,3.78
2023-05-02T06:02:23.484Z,3.45
2023-05-02T06:04:51.113Z,3.83
2023-05-02T06:07:21.948Z,3.63
2023-05-02T06:09:49.625Z,3.35
2023-05-02T06:12:17.505Z,3.70
2023-05-02T06:14:46.018Z,3.47
2023-05-02T06:17:14.740Z,3.10
2023-05-02T06:19:42.095Z,3.75
2023-05-02T06:22:13.090Z,3.13
2023-05-02T06:24:40.285Z,3.88
2023-05-02T06:27:07.632Z,3.70
2023-05-02T06:29:35.121Z,3.50
2023-05-02T06:32:02.905Z,3.80
2023-05-02T06:34:33.664Z,3.70
2023-05-02T06:37:00.971Z,3.00
2023-05-02T06:39:28.309Z,3.75
2023-05-02T06:41:58.871Z,3.55
2023-05-02T06:44:27.641Z,3.70
2023-05-02T06:46:56.176Z,3.40
2023-05-02T06:49:23.960Z,3.08
2023-05-02T06:51:51.125Z,3.70
2023-05-02T06:54:18.410Z,3.72
2023-05-02T06:56:45.776Z,3.35
2023-05-02T06:59:13.561Z,4.13
2023-05-02T07:01:40.932Z,4.85
2023-05-02T07:04:08.417Z,3.67
2023-05-02T07:06:36.145Z,4.10
2023-05-02T07:09:03.843Z,4.05
2023-05-02T07:11:31.173Z,3.67
2023-05-02T07:13:58.434Z,4.20
2023-05-02T07:16:25.921Z,3.90
2023-05-02T07:18:53.221Z,3.15
2023-05-02T07:21:20.383Z,3.33
2023-05-02T07:23:47.702Z,3.63
2023-05-02T07:26:15.034Z,4.15
2023-05-02T07:28:43.432Z,3.50
2023-05-02T07:31:10.830Z,3.33
2023-05-02T07:33:38.274Z,3.70
2023-05-02T07:36:05.782Z,3.92
2023-05-02T07:38:33.145Z,3.90
2023-05-02T07:41:01.309Z,4.13
2023-05-02T07:43:28.713Z,4.78
2023-05-02T07:45:56.452Z,4.10
2023-05-02T07:48:27.088Z,3.83
2023-05-02T07:50:55.294Z,4.35
2023-05-02T07:53:22.620Z,3.72
2023-05-02T07:55:49.897Z,4.20
2023-05-02T07:58:17.177Z,3.72
2023-05-02T08:00:44.494Z,3.88
2023-05-02T08:03:11.837Z,3.67
2023-05-02T08:05:39.159Z,3.90
2023-05-02T08:08:06.875Z,3.95
2023-05-02T08:10:34.226Z,4.13
2023-05-02T08:13:01.566Z,4.10
2023-05-02T08:15:28.829Z,3.65
2023-05-02T08:17:56.215Z,3.83
2023-05-02T08:20:23.665Z,4.30
2023-05-02T08:22:51.995Z,3.80
2023-05-02T08:25:19.222Z,4.25
2023-05-02T08:27:46.910Z,4.10
2023-05-02T08:30:14.725Z,4.78
2023-05-02T08:32:42.137Z,3.70
2023-05-02T08:35:09.713Z,3.35
2023-05-02T08:37:37.507Z,3.58
2023-05-02T08:40:05.417Z,3.67
2023-05-02T08:42:35.057Z,4.07
2023-05-02T08:45:02.993Z,4.10
2023-05-02T08:47:32.432Z,3.60
2023-05-02T08:50:00.727Z,4.35
2023-05-02T08:52:29.388Z,3.40
2023-05-02T08:54:57.143Z,3.72
2023-05-02T08:57:24.998Z,3.67
2023-05-02T08:59:52.355Z,3.97
2023-05-02T09:02:52.746Z,4.10
2023-05-02T09:05:24.085Z,4.15
2023-05-02T09:07:52.576Z,3.80
2023-05-02T09:10:21.861Z,3.70
2023-05-02T09:12:49.180Z,4.00
2023-05-02T09:15:20.688Z,3.80
2023-05-02T09:17:49.366Z,4.00
2023-05-02T09:20:17.416Z,4.30
2023-05-02T09:22:52.622Z,4.00
2023-05-02T09:25:23.180Z,4.53
2023-05-02T09:27:55.309Z,4.10
2023-05-02T09:30:24.120Z,4.20
2023-05-02T09:32:52.308Z,3.90
2023-05-02T09:35:24.402Z,4.20
2023-05-02T09:37:56.885Z,4.13
2023-05-02T09:40:25.003Z,3.90
2023-05-02T09:42:53.110Z,4.47
2023-05-02T09:45:25.753Z,4.30
2023-05-02T09:50:38.152Z,4.30
2023-05-02T09:53:08.778Z,4.28
2023-05-02T09:55:36.746Z,4.28
2023-05-02T09:58:04.486Z,4.22
2023-05-02T10:00:45.487Z,3.95
2023-05-02T10:03:16.945Z,4.50
2023-05-02T10:05:45.930Z,3.97
2023-05-02T10:08:14.449Z,4.22
2023-05-02T10:10:46.365Z,3.72
2023-05-02T10:13:17.644Z,3.88
2023-05-02T10:15:45.297Z,4.00
2023-05-02T10:18:15.438Z,4.03
2023-05-02T10:20:54.970Z,4.60
2023-05-02T10:23:25.873Z,3.33
2023-05-02T10:25:53.973Z,4.00
2023-05-02T10:28:21.327Z,3.72
2023-05-02T10:30:50.285Z,4.03
2023-05-02T10:33:19.739Z,4.70
2023-05-02T10:35:47.671Z,4.32
2023-05-02T10:38:20.772Z,4.60
2023-05-02T10:43:36.093Z,4.85
2023-05-02T10:46:06.925Z,5.25
2023-05-02T10:48:34.775Z,5.35
2023-05-02T10:51:02.438Z,4.57
2023-05-02T10:53:37.055Z,6.07
2023-05-02T10:56:18.766Z,5.53
2023-05-02T10:58:47.149Z,5.57
2023-05-02T11:01:29.704Z,5.38
2023-05-02T11:04:08.289Z,5.50
2023-05-02T11:06:38.109Z,5.60
2023-05-02T11:09:18.332Z,5.75
2023-05-02T11:11:46.531Z,6.28
2023-05-02T11:14:39.952Z,6.30
2023-05-02T11:17:11.278Z,6.38
2023-05-02T11:19:38.647Z,5.43
2023-05-02T11:22:18.151Z,5.30
2023-05-02T11:24:49.921Z,5.85
2023-05-02T11:27:33.838Z,5.70
2023-05-02T11:30:07.103Z,5.30
2023-05-02T11:32:47.874Z,5.40
2023-05-02T11:35:28.147Z,5.50
2023-05-02T11:38:00.610Z,4.80
2023-05-02T11:40:28.889Z,5.88
2023-05-02T11:42:59.077Z,6.00
2023-05-02T11:45:46.082Z,5.68
2023-05-02T11:48:16.400Z,5.22
2023-05-02T11:50:51.790Z,5.43
2023-05-02T11:53:24.961Z,5.38
2023-05-02T11:55:57.707Z,5.13
2023-05-02T11:58:30.361Z,5.03
2023-05-02T12:00:57.928Z,5.55
2023-05-02T12:03:32.234Z,5.43
2023-05-02T12:06:14.715Z,5.30
2023-05-02T12:11:16.416Z,4.93
2023-05-02T12:13:49.138Z,5.50
2023-05-02T12:16:17.569Z,5.45
2023-05-02T12:18:45.855Z,5.57
2023-05-02T12:21:13.367Z,5.07
2023-05-02T12:23:42.667Z,5.07
2023-05-02T12:26:32.119Z,4.82
2023-05-02T12:28:59.496Z,5.40
2023-05-02T12:31:28.377Z,5.10
2023-05-02T12:33:58.117Z,6.18
2023-05-02T12:36:25.741Z,5.70
2023-05-02T12:38:55.287Z,5.43
2023-05-02T12:41:38.073Z,4.75
2023-05-02T12:44:08.393Z,4.60
2023-05-02T12:46:36.848Z,6.00
2023-05-02T12:49:10.152Z,4.40
2023-05-02T12:51:38.225Z,5.57
2023-05-02T12:54:07.372Z,6.10
2023-05-02T12:56:41.784Z,6.60
2023-05-02T12:59:09.920Z,5.97
2023-05-02T13:01:37.252Z,6.53
2023-05-02T13:04:06.068Z,6.00
2023-05-02T13:06:33.446Z,5.80
2023-05-02T13:09:00.783Z,6.30
2023-05-02T13:11:28.479Z,6.60
2023-05-02T13:13:56.245Z,5.93
2023-05-02T13:16:23.661Z,5.18
2023-05-02T13:18:51.182Z,4.60
2023-05-02T13:21:18.483Z,4.32
2023-05-02T13:23:48.269Z,4.82
2023-05-02T13:26:15.635Z,5.80
2023-05-02T13:28:42.866Z,6.32
2023-05-02T13:31:10.160Z,7.10
2023-05-02T13:33:37.484Z,7.07
2023-05-02T13:36:05.008Z,7.05
2023-05-02T13:38:32.935Z,7.45
2023-05-02T13:41:00.180Z,10.30
2023-05-02T13:43:28.091Z,10.10
2023-05-02T13:45:55.356Z,8.77
2023-05-02T13:48:22.658Z,8.32
2023-05-02T13:50:49.849Z,10.35
2023-05-02T13:53:17.912Z,11.48
2023-05-02T13:55:45.233Z,10.27
2023-05-02T13:58:12.493Z,11.40
2023-05-02T14:00:39.781Z,10.93
2023-05-02T14:03:07.291Z,10.88
2023-05-02T14:05:34.682Z,11.18
2023-05-02T14:08:01.962Z,9.60
2023-05-02T14:10:29.258Z,9.57
2023-05-02T14:12:56.725Z,10.63
2023-05-02T14:15:24.303Z,10.38
2023-05-02T14:17:51.669Z,12.05
2023-05-02T14:20:19.124Z,12.82
2023-05-02T14:22:46.446Z,10.50
2023-05-02T14:25:14.442Z,10.75
2023-05-02T14:27:42.819Z,11.27
2023-05-02T14:30:10.440Z,10.45
2023-05-02T14:32:37.964Z,10.57
2023-05-02T14:35:05.674Z,10.15
2023-05-02T14:37:33.002Z,10.35
2023-05-02T14:40:00.553Z,10.63
2023-05-02T14:42:27.919Z,10.20
2023-05-02T14:44:56.083Z,9.82
2023-05-02T14:47:25.943Z,9.10
2023-05-02T14:49:53.124Z,9.20
2023-05-02T14:52:20.337Z,8.93
2023-05-02T14:54:47.752Z,8.05
2023-05-02T14:57:15.979Z,9.48
2023-05-02T14:59:43.316Z,8.90
2023-05-02T15:02:10.707Z,7.95
2023-05-02T15:04:38.163Z,8.43
2023-05-02T15:07:06.094Z,6.93
2023-05-02T15:09:33.469Z,7.35
2023-05-02T15:12:00.823Z,6.15
2023-05-02T15:14:28.190Z,6.47
2023-05-02T15:16:55.622Z,6.55
2023-05-02T15:19:25.952Z,6.05
2023-05-02T15:21:57.936Z,6.80
2023-05-02T15:24:25.327Z,7.22
2023-05-02T15:26:53.000Z,7.25
2023-05-02T15:29:20.516Z,8.05
2023-05-02T15:31:47.955Z,7.18
2023-05-02T15:34:15.844Z,6.55
2023-05-02T15:36:43.547Z,6.05
2023-05-02T15:39:10.906Z,5.63
2023-05-02T15:41:38.322Z,5.70
2023-05-02T15:44:05.860Z,5.00
2023-05-02T15:46:33.059Z,5.63
2023-05-02T15:49:00.511Z,5.32
2023-05-02T15:51:27.974Z,5.25
2023-05-02T15:53:55.897Z,4.78
2023-05-02T15:56:23.270Z,4.60
2023-05-02T15:58:50.615Z,5.20
2023-05-02T16:01:17.894Z,4.30
2023-05-02T16:03:45.717Z,4.55
2023-05-02T16:06:13.173Z,3.85
2023-05-02T16:08:40.557Z,4.20
2023-05-02T16:11:07.859Z,4.30
2023-05-02T16:13:35.791Z,5.47
2023-05-02T16:16:03.183Z,4.97
2023-05-02T16:18:30.572Z,5.50
2023-05-02T16:20:57.851Z,4.97
2023-05-02T16:23:26.184Z,4.32
2023-05-02T16:26:01.087Z,5.07
2023-05-02T16:28:28.365Z,5.28
2023-05-02T16:30:55.925Z,4.68
2023-05-02T16:33:23.482Z,4.57
2023-05-02T16:36:01.665Z,5.55
2023-05-02T16:38:28.944Z,5.38
2023-05-02T16:40:56.332Z,5.05
2023-05-02T16:43:24.241Z,6.10
2023-05-02T16:46:06.375Z,5.38
2023-05-02T16:48:34.522Z,5.57
2023-05-02T16:51:03.929Z,6.30
2023-05-02T16:53:32.464Z,5.22
2023-05-02T16:56:00.106Z,5.90
2023-05-02T16:58:30.838Z,5.40
2023-05-02T17:01:00.763Z,5.72
2023-05-02T17:03:29.819Z,6.50
2023-05-02T17:06:02.227Z,6.85
2023-05-02T17:08:29.703Z,7.10
2023-05-02T17:10:57.240Z,7.25
2023-05-02T17:13:24.814Z,7.63
2023-05-02T17:15:53.382Z,7.22
2023-05-02T17:18:21.048Z,7.03
2023-05-02T17:20:48.365Z,6.90
2023-05-02T17:23:16.136Z,6.88
2023-05-02T17:25:43.465Z,6.80
2023-05-02T17:28:10.945Z,5.97
2023-05-02T17:30:38.824Z,6.22
2023-05-02T17:33:06.403Z,6.80
2023-05-02T17:35:33.720Z,6.85
2023-05-02T17:38:00.972Z,7.43
2023-05-02T17:40:28.299Z,7.80
2023-05-02T17:42:55.829Z,7.13
2023-05-02T17:45:23.566Z,6.97
2023-05-02T17:47:51.513Z,7.63
2023-05-02T17:50:18.991Z,7.78
2023-05-02T17:52:46.176Z,7.32
2023-05-02T17:55:13.469Z,8.00
2023-05-02T17:57:40.837Z,7.57
2023-05-02T18:00:08.865Z,6.43
2023-05-02T18:02:39.003Z,7.05
2023-05-02T18:05:07.325Z,6.65
2023-05-02T18:07:34.635Z,7.00
2023-05-02T18:10:04.664Z,7.10
2023-05-02T18:12:35.287Z,6.20
2023-05-02T18:15:06.054Z,6.38
2023-05-02T18:17:33.670Z,6.40
2023-05-02T18:20:01.290Z,5.60
2023-05-02T18:22:28.787Z,5.88
2023-05-02T18:24:56.272Z,4.40
2023-05-02T18:27:23.521Z,5.80
2023-05-02T18:29:50.944Z,5.30
2023-05-02T18:32:18.162Z,4.00
2023-05-02T18:34:45.904Z,3.83
2023-05-02T18:37:13.183Z,3.78
2023-05-02T18:39:40.490Z,3.25
2023-05-02T18:42:08.626Z,2.70
2023-05-02T18:44:36.205Z,3.55
2023-05-02T18:47:03.407Z,3.33
2023-05-02T18:49:30.671Z,5.57
2023-05-02T18:51:57.902Z,6.70
2023-05-02T18:54:26.578Z,7.47
2023-05-02T18:56:53.809Z,7.65
2023-05-02T18:59:21.525Z,4.82
2023-05-02T19:01:49.017Z,4.30
2023-05-02T19:04:16.753Z,4.78
2023-05-02T19:06:44.053Z,4.95
2023-05-02T19:09:13.645Z,4.63
2023-05-02T19:11:41.633Z,6.47
2023-05-02T19:14:09.335Z,6.70
2023-05-02T19:16:40.194Z,6.35
2023-05-02T19:19:07.894Z,4.43
2023-05-02T19:21:35.171Z,6.43
2023-05-02T19:24:03.162Z,7.32
2023-05-02T19:26:30.564Z,6.03
2023-05-02T19:28:58.003Z,5.75
2023-05-02T19:31:25.491Z,4.20
2023-05-02T19:33:53.138Z,5.72
2023-05-02T19:36:22.493Z,4.60
2023-05-02T19:38:51.480Z,3.88
2023-05-02T19:41:19.029Z,5.25
2023-05-02T19:43:46.265Z,5.00
2023-05-02T19:46:16.374Z,5.35
2023-05-02T19:48:43.733Z,5.10
2023-05-02T19:51:11.118Z,6.47
2023-05-02T19:53:38.923Z,3.85
2023-05-02T19:56:09.093Z,5.47
2023-05-02T19:58:36.490Z,4.40
2023-05-02T20:01:03.869Z,4.38
2023-05-02T20:03:31.429Z,5.32
2023-05-02T20:05:59.020Z,5.65
2023-05-02T20:08:30.541Z,5.07
2023-05-02T20:10:57.812Z,4.85
2023-05-02T20:13:25.030Z,5.95
2023-05-02T20:15:53.283Z,5.43
2023-05-02T20:18:21.188Z,5.20
2023-05-02T20:20:48.493Z,4.00
2023-05-02T20:23:16.421Z,5.57
2023-05-02T20:25:44.322Z,3.92
2023-05-02T20:28:11.796Z,4.25
2023-05-02T20:30:43.200Z,5.13
2023-05-02T20:33:16.117Z,4.53
2023-05-02T20:35:44.890Z,5.10
2023-05-02T20:38:12.462Z,5.95
2023-05-02T20:40:41.018Z,5.30
2023-05-02T20:43:09.139Z,6.47
2023-05-02T20:45:36.493Z,6.65
2023-05-02T20:48:03.867Z,6.03
2023-05-02T20:50:31.509Z,6.30
2023-05-02T20:52:58.821Z,5.60
2023-05-02T20:55:26.300Z,4.07
2023-05-02T20:57:53.849Z,4.65
2023-05-02T21:00:24.123Z,4.82
2023-05-02T21:02:51.638Z,4.50
2023-05-02T21:05:19.151Z,5.32
2023-05-02T21:07:46.793Z,4.20
2023-05-02T21:10:14.165Z,5.53
2023-05-02T21:12:41.514Z,5.45
2023-05-02T21:15:09.044Z,5.43
2023-05-02T21:17:39.146Z,5.68
2023-05-02T21:20:07.738Z,5.15
2023-05-02T21:22:34.921Z,4.05
2023-05-02T21:25:02.212Z,4.25
2023-05-02T21:27:29.481Z,3.63
2023-05-02T21:29:56.829Z,3.80
2023-05-02T21:32:26.218Z,3.88
2023-05-02T21:34:53.694Z,5.15
2023-05-02T21:37:21.100Z,5.45
2023-05-02T21:39:48.396Z,5.20
2023-05-02T21:42:15.763Z,4.95
2023-05-02T21:44:43.082Z,7.40
2023-05-02T21:47:10.418Z,7.78
2023-05-02T21:49:37.810Z,5.43
2023-05-02T21:52:05.658Z,5.05
2023-05-02T21:54:33.545Z,6.70
2023-05-02T21:57:00.988Z,8.05
2023-05-02T21:59:28.253Z,7.25
2023-05-02T22:01:55.442Z,6.50
2023-05-02T22:04:22.748Z,5.35
2023-05-02T22:06:53.406Z,4.65
2023-05-02T22:09:23.660Z,3.83
2023-05-02T22:11:51.309Z,6.57
2023-05-02T22:14:18.572Z,4.75
2023-05-02T22:16:45.812Z,3.70
2023-05-02T22:19:15.201Z,4.75
2023-05-02T22:21:42.756Z,5.72
2023-05-02T22:24:10.011Z,4.32
2023-05-02T22:26:37.232Z,4.82
2023-05-02T22:29:04.507Z,4.70
2023-05-02T22:31:31.785Z,3.10
2023-05-02T22:33:59.061Z,4.90
2023-05-02T22:36:28.349Z,6.25
2023-05-02T22:38:57.134Z,4.93
2023-05-02T22:41:24.613Z,4.43
2023-05-02T22:43:51.877Z,4.63
2023-05-02T22:46:19.101Z,5.07
2023-05-02T22:48:46.360Z,4.30
2023-05-02T22:51:14.005Z,3.42
2023-05-02T22:53:41.236Z,3.55
2023-05-02T22:56:08.474Z,5.32
2023-05-02T22:58:35.888Z,2.90
2023-05-02T23:01:03.153Z,3.17
2023-05-02T23:03:30.404Z,5.15
2023-05-02T23:05:57.600Z,3.97
2023-05-02T23:08:24.789Z,3.42
2023-05-02T23:10:52.297Z,3.60
2023-05-02T23:13:19.443Z,4.07
2023-05-02T23:15:46.732Z,3.47
2023-05-02T23:18:14.029Z,4.03
2023-05-02T23:20:41.377Z,3.72
2023-05-02T23:23:08.569Z,6.78
2023-05-02T23:25:36.845Z,7.57
2023-05-02T23:28:04.039Z,6.18
2023-05-02T23:30:32.336Z,6.22
2023-05-02T23:33:00.675Z,6.28
2023-05-02T23:35:27.946Z,5.13
2023-05-02T23:37:55.319Z,6.18
2023-05-02T23:40:22.554Z,4.25
2023-05-02T23:42:49.807Z,5.18
2023-05-02T23:45:17.260Z,6.40
2023-05-02T23:47:44.897Z,5.28
2023-05-02T23:50:12.374Z,5.72
2023-05-02T23:52:39.567Z,5.53
2023-05-02T23:55:10.962Z,4.60
2023-05-02T23:57:38.288Z,6.63
